sensor_id;sensor_type;location;lat;lon;timestamp;temperature;humidity
7206;DHT22;3644;53.480;10.004;2023-04-09T00:00:37;10.40;99.90
7206;DHT22;3644;53.480;10.004;2023-04-09T00:03:02;10.40;99.90
7206;DHT22;3644;53.480;10.004;2023-04-09T00:05:28;10.40;99.90
7206;DHT22;3644;53.480;10.004;2023-04-09T00:07:53;10.30;99.90
7206;DHT22;3644;53.480;10.004;2023-04-09T00:10:20;10.30;99.90
7206;DHT22;3644;53.480;10.004;2023-04-09T00:12:45;10.30;99.90
7206;DHT22;3644;53.480;10.004;2023-04-09T00:15:11;10.30;99.90
7206;DHT22;3644;53.480;10.004;2023-04-09T00:17:36;10.30;99.90
7206;DHT22;3644;53.480;10.004;2023-04-09T00:20:02;10.30;99.90
7206;DHT22;3644;53.480;10.004;2023-04-09T00:22:28;10.20;99.90
7206;DHT22;3644;53.480;10.004;2023-04-09T00:24:54;10.10;99.90
7206;DHT22;3644;53.480;10.004;2023-04-09T00:27:20;10.20;99.90
7206;DHT22;3644;53.480;10.004;2023-04-09T00:29:45;10.10;99.90
7206;DHT22;3644;53.480;10.004;2023-04-09T00:32:12;10.20;99.90
7206;DHT22;3644;53.480;10.004;2023-04-09T00:34:37;10.20;99.90
7206;DHT22;3644;53.480;10.004;2023-04-09T00:37:03;10.20;99.90
7206;DHT22;3644;53.480;10.004;2023-04-09T00:39:29;10.10;99.90
7206;DHT22;3644;53.480;10.004;2023-04-09T00:41:58;10.10;99.90
7206;DHT22;3644;53.480;10.004;2023-04-09T00:44:25;10.20;99.90
7206;DHT22;3644;53.480;10.004;2023-04-09T00:46:51;10.10;99.90
7206;DHT22;3644;53.480;10.004;2023-04-09T00:49:18;10.10;99.90
7206;DHT22;3644;53.480;10.004;2023-04-09T00:51:44;10.20;99.90
7206;DHT22;3644;53.480;10.004;2023-04-09T00:54:10;10.40;99.90
7206;DHT22;3644;53.480;10.004;2023-04-09T00:56:38;10.30;99.90
7206;DHT22;3644;53.480;10.004;2023-04-09T00:59:03;10.40;99.90
7206;DHT22;3644;53.480;10.004;2023-04-09T01:01:29;10.30;99.90
7206;DHT22;3644;53.480;10.004;2023-04-09T01:03:56;10.30;99.90
7206;DHT22;3644;53.480;10.004;2023-04-09T01:09:17;10.20;99.90
7206;DHT22;3644;53.480;10.004;2023-04-09T01:15:09;10.20;99.90
7206;DHT22;3644;53.480;10.004;2023-04-09T01:17:53;10.30;99.90
7206;DHT22;3644;53.480;10.004;2023-04-09T01:23:13;10.30;99.90
7206;DHT22;3644;53.480;10.004;2023-04-09T01:25:46;10.30;99.90
7206;DHT22;3644;53.480;10.004;2023-04-09T01:28:34;10.30;99.90
7206;DHT22;3644;53.480;10.004;2023-04-09T01:31:04;10.30;99.90
7206;DHT22;3644;53.480;10.004;2023-04-09T01:33:31;10.30;99.90
7206;DHT22;3644;53.480;10.004;2023-04-09T01:35:58;10.30;99.90
7206;DHT22;3644;53.480;10.004;2023-04-09T01:38:26;10.30;99.90
7206;DHT22;3644;53.480;10.004;2023-04-09T01:40:53;10.30;99.90
7206;DHT22;3644;53.480;10.004;2023-04-09T01:43:20;10.30;99.90
7206;DHT22;3644;53.480;10.004;2023-04-09T01:45:47;10.20;99.90
7206;DHT22;3644;53.480;10.004;2023-04-09T01:48:13;10.30;99.90
7206;DHT22;3644;53.480;10.004;2023-04-09T01:50:39;10.20;99.90
7206;DHT22;3644;53.480;10.004;2023-04-09T01:53:05;10.10;99.90
7206;DHT22;3644;53.480;10.004;2023-04-09T01:55:31;10.20;99.90
7206;DHT22;3644;53.480;10.004;2023-04-09T01:57:57;10.20;99.90
7206;DHT22;3644;53.480;10.004;2023-04-09T02:00:23;10.20;99.90
7206;DHT22;3644;53.480;10.004;2023-04-09T02:05:18;10.20;99.90
7206;DHT22;3644;53.480;10.004;2023-04-09T02:07:46;10.10;99.90
7206;DHT22;3644;53.480;10.004;2023-04-09T02:10:15;10.00;99.90
7206;DHT22;3644;53.480;10.004;2023-04-09T02:12:47;10.10;99.90
7206;DHT22;3644;53.480;10.004;2023-04-09T02:15:14;10.20;99.90
7206;DHT22;3644;53.480;10.004;2023-04-09T02:17:39;10.10;99.90
7206;DHT22;3644;53.480;10.004;2023-04-09T02:20:06;10.00;99.90
7206;DHT22;3644;53.480;10.004;2023-04-09T02:22:31;10.10;99.90
7206;DHT22;3644;53.480;10.004;2023-04-09T02:24:57;10.20;99.90
7206;DHT22;3644;53.480;10.004;2023-04-09T02:27:22;10.20;99.90
7206;DHT22;3644;53.480;10.004;2023-04-09T02:29:49;10.20;99.90
7206;DHT22;3644;53.480;10.004;2023-04-09T02:32:14;10.10;99.90
7206;DHT22;3644;53.480;10.004;2023-04-09T02:34:40;10.10;99.90
7206;DHT22;3644;53.480;10.004;2023-04-09T02:37:05;10.20;99.90
7206;DHT22;3644;53.480;10.004;2023-04-09T02:39:31;10.20;99.90
7206;DHT22;3644;53.480;10.004;2023-04-09T02:41:57;10.20;99.90
7206;DHT22;3644;53.480;10.004;2023-04-09T02:44:22;10.20;99.90
7206;DHT22;3644;53.480;10.004;2023-04-09T02:46:50;10.20;99.90
7206;DHT22;3644;53.480;10.004;2023-04-09T02:49:16;10.30;99.90
7206;DHT22;3644;53.480;10.004;2023-04-09T02:51:41;10.20;99.90
7206;DHT22;3644;53.480;10.004;2023-04-09T02:54:07;10.30;99.90
7206;DHT22;3644;53.480;10.004;2023-04-09T02:56:32;10.30;99.90
7206;DHT22;3644;53.480;10.004;2023-04-09T02:58:58;10.30;99.90
7206;DHT22;3644;53.480;10.004;2023-04-09T03:01:23;10.30;99.90
7206;DHT22;3644;53.480;10.004;2023-04-09T03:03:49;10.30;99.90
7206;DHT22;3644;53.480;10.004;2023-04-09T03:06:15;10.40;99.90
7206;DHT22;3644;53.480;10.004;2023-04-09T03:08:40;10.40;99.90
7206;DHT22;3644;53.480;10.004;2023-04-09T03:11:06;10.30;99.90
7206;DHT22;3644;53.480;10.004;2023-04-09T03:13:31;10.30;99.90
7206;DHT22;3644;53.480;10.004;2023-04-09T03:15:57;10.30;99.90
7206;DHT22;3644;53.480;10.004;2023-04-09T03:18:22;10.30;99.90
7206;DHT22;3644;53.480;10.004;2023-04-09T03:20:48;10.20;99.90
7206;DHT22;3644;53.480;10.004;2023-04-09T03:23:13;10.20;99.90
7206;DHT22;3644;53.480;10.004;2023-04-09T03:25:39;10.30;99.90
7206;DHT22;3644;53.480;10.004;2023-04-09T03:28:05;10.20;99.90
7206;DHT22;3644;53.480;10.004;2023-04-09T03:30:30;10.30;99.90
7206;DHT22;3644;53.480;10.004;2023-04-09T03:32:56;10.30;99.90
7206;DHT22;3644;53.480;10.004;2023-04-09T03:35:23;10.30;99.90
7206;DHT22;3644;53.480;10.004;2023-04-09T03:37:48;10.20;99.90
7206;DHT22;3644;53.480;10.004;2023-04-09T03:40:14;10.20;99.90
7206;DHT22;3644;53.480;10.004;2023-04-09T03:42:41;10.30;99.90
7206;DHT22;3644;53.480;10.004;2023-04-09T03:45:07;10.40;99.90
7206;DHT22;3644;53.480;10.004;2023-04-09T03:47:33;10.30;99.90
7206;DHT22;3644;53.480;10.004;2023-04-09T03:49:58;10.30;99.90
7206;DHT22;3644;53.480;10.004;2023-04-09T03:52:23;10.30;99.90
7206;DHT22;3644;53.480;10.004;2023-04-09T03:54:49;10.30;99.90
7206;DHT22;3644;53.480;10.004;2023-04-09T03:57:15;10.20;99.90
7206;DHT22;3644;53.480;10.004;2023-04-09T03:59:40;10.30;99.90
7206;DHT22;3644;53.480;10.004;2023-04-09T04:02:06;10.20;99.90
7206;DHT22;3644;53.480;10.004;2023-04-09T04:04:31;10.30;99.90
7206;DHT22;3644;53.480;10.004;2023-04-09T04:06:57;10.20;99.90
7206;DHT22;3644;53.480;10.004;2023-04-09T04:09:22;10.20;99.90
7206;DHT22;3644;53.480;10.004;2023-04-09T04:11:48;10.20;99.90
7206;DHT22;3644;53.480;10.004;2023-04-09T04:14:14;10.10;99.90
7206;DHT22;3644;53.480;10.004;2023-04-09T04:16:40;10.20;99.90
7206;DHT22;3644;53.480;10.004;2023-04-09T04:19:05;10.20;99.90
7206;DHT22;3644;53.480;10.004;2023-04-09T04:21:31;10.20;99.90
7206;DHT22;3644;53.480;10.004;2023-04-09T04:23:57;10.20;99.90
7206;DHT22;3644;53.480;10.004;2023-04-09T04:26:22;10.20;99.90
7206;DHT22;3644;53.480;10.004;2023-04-09T04:28:47;10.30;99.90
7206;DHT22;3644;53.480;10.004;2023-04-09T04:31:13;10.20;99.90
7206;DHT22;3644;53.480;10.004;2023-04-09T04:33:40;10.30;99.90
7206;DHT22;3644;53.480;10.004;2023-04-09T04:36:13;10.30;99.90
7206;DHT22;3644;53.480;10.004;2023-04-09T04:38:38;10.30;99.90
7206;DHT22;3644;53.480;10.004;2023-04-09T04:41:05;10.30;99.90
7206;DHT22;3644;53.480;10.004;2023-04-09T04:43:31;10.20;99.90
7206;DHT22;3644;53.480;10.004;2023-04-09T04:45:57;10.20;99.90
7206;DHT22;3644;53.480;10.004;2023-04-09T04:48:22;10.20;99.90
7206;DHT22;3644;53.480;10.004;2023-04-09T04:50:56;10.10;99.90
7206;DHT22;3644;53.480;10.004;2023-04-09T04:53:22;10.20;99.90
7206;DHT22;3644;53.480;10.004;2023-04-09T04:55:47;10.20;99.90
7206;DHT22;3644;53.480;10.004;2023-04-09T04:58:13;10.20;99.90
7206;DHT22;3644;53.480;10.004;2023-04-09T05:00:38;10.20;99.90
7206;DHT22;3644;53.480;10.004;2023-04-09T05:03:04;10.20;99.90
7206;DHT22;3644;53.480;10.004;2023-04-09T05:05:29;10.20;99.90
7206;DHT22;3644;53.480;10.004;2023-04-09T05:07:55;10.10;99.90
7206;DHT22;3644;53.480;10.004;2023-04-09T05:10:20;10.20;99.90
7206;DHT22;3644;53.480;10.004;2023-04-09T05:12:46;10.20;99.90
7206;DHT22;3644;53.480;10.004;2023-04-09T05:15:11;10.10;99.90
7206;DHT22;3644;53.480;10.004;2023-04-09T05:17:37;10.20;99.90
7206;DHT22;3644;53.480;10.004;2023-04-09T05:20:03;10.20;99.90
7206;DHT22;3644;53.480;10.004;2023-04-09T05:22:28;10.10;99.90
7206;DHT22;3644;53.480;10.004;2023-04-09T05:24:54;10.10;99.90
7206;DHT22;3644;53.480;10.004;2023-04-09T05:27:19;10.10;99.90
7206;DHT22;3644;53.480;10.004;2023-04-09T05:29:46;10.20;99.90
7206;DHT22;3644;53.480;10.004;2023-04-09T05:32:12;10.20;99.90
7206;DHT22;3644;53.480;10.004;2023-04-09T05:34:37;10.20;99.90
7206;DHT22;3644;53.480;10.004;2023-04-09T05:37:03;10.30;99.90
7206;DHT22;3644;53.480;10.004;2023-04-09T05:39:28;10.30;99.90
7206;DHT22;3644;53.480;10.004;2023-04-09T05:41:54;10.20;99.90
7206;DHT22;3644;53.480;10.004;2023-04-09T05:44:20;10.20;99.90
7206;DHT22;3644;53.480;10.004;2023-04-09T05:46:46;10.20;99.90
7206;DHT22;3644;53.480;10.004;2023-04-09T05:49:11;10.20;99.90
7206;DHT22;3644;53.480;10.004;2023-04-09T05:51:36;10.50;99.90
7206;DHT22;3644;53.480;10.004;2023-04-09T05:54:02;10.10;99.90
7206;DHT22;3644;53.480;10.004;2023-04-09T05:56:28;10.10;99.90
7206;DHT22;3644;53.480;10.004;2023-04-09T05:58:53;9.90;99.90
7206;DHT22;3644;53.480;10.004;2023-04-09T06:01:19;9.90;99.90
7206;DHT22;3644;53.480;10.004;2023-04-09T06:03:45;10.00;99.90
7206;DHT22;3644;53.480;10.004;2023-04-09T06:06:11;9.90;99.90
7206;DHT22;3644;53.480;10.004;2023-04-09T06:08:37;9.90;99.90
7206;DHT22;3644;53.480;10.004;2023-04-09T06:11:02;9.90;99.90
7206;DHT22;3644;53.480;10.004;2023-04-09T06:13:28;9.90;99.90
7206;DHT22;3644;53.480;10.004;2023-04-09T06:15:53;9.80;99.90
7206;DHT22;3644;53.480;10.004;2023-04-09T06:18:19;9.80;99.90
7206;DHT22;3644;53.480;10.004;2023-04-09T06:20:44;9.90;99.90
7206;DHT22;3644;53.480;10.004;2023-04-09T06:23:10;10.10;99.90
7206;DHT22;3644;53.480;10.004;2023-04-09T06:25:35;10.20;99.90
7206;DHT22;3644;53.480;10.004;2023-04-09T06:28:01;10.20;99.90
7206;DHT22;3644;53.480;10.004;2023-04-09T06:30:27;10.40;99.90
7206;DHT22;3644;53.480;10.004;2023-04-09T06:32:53;10.40;99.90
7206;DHT22;3644;53.480;10.004;2023-04-09T06:35:19;10.60;99.90
7206;DHT22;3644;53.480;10.004;2023-04-09T06:37:45;10.80;99.90
7206;DHT22;3644;53.480;10.004;2023-04-09T06:40:10;11.00;99.90
7206;DHT22;3644;53.480;10.004;2023-04-09T06:42:36;11.00;99.90
7206;DHT22;3644;53.480;10.004;2023-04-09T06:45:02;11.10;99.90
7206;DHT22;3644;53.480;10.004;2023-04-09T06:47:33;11.00;99.90
7206;DHT22;3644;53.480;10.004;2023-04-09T06:49:58;11.00;99.90
7206;DHT22;3644;53.480;10.004;2023-04-09T06:52:24;11.00;99.90
7206;DHT22;3644;53.480;10.004;2023-04-09T06:54:49;10.90;99.90
7206;DHT22;3644;53.480;10.004;2023-04-09T06:57:16;10.90;99.90
7206;DHT22;3644;53.480;10.004;2023-04-09T06:59:41;10.90;99.90
7206;DHT22;3644;53.480;10.004;2023-04-09T07:02:07;10.80;99.90
7206;DHT22;3644;53.480;10.004;2023-04-09T07:04:33;10.90;99.90
7206;DHT22;3644;53.480;10.004;2023-04-09T07:06:58;11.00;99.90
7206;DHT22;3644;53.480;10.004;2023-04-09T07:09:24;10.90;99.90
7206;DHT22;3644;53.480;10.004;2023-04-09T07:11:50;10.90;99.90
7206;DHT22;3644;53.480;10.004;2023-04-09T07:14:15;10.90;99.90
7206;DHT22;3644;53.480;10.004;2023-04-09T07:16:41;11.00;99.90
7206;DHT22;3644;53.480;10.004;2023-04-09T07:19:07;11.00;99.90
7206;DHT22;3644;53.480;10.004;2023-04-09T07:21:32;11.10;99.90
7206;DHT22;3644;53.480;10.004;2023-04-09T07:23:58;11.20;99.90
7206;DHT22;3644;53.480;10.004;2023-04-09T07:26:23;11.30;99.90
7206;DHT22;3644;53.480;10.004;2023-04-09T07:28:49;11.30;99.90
7206;DHT22;3644;53.480;10.004;2023-04-09T07:31:14;11.40;99.90
7206;DHT22;3644;53.480;10.004;2023-04-09T07:33:40;11.50;99.90
7206;DHT22;3644;53.480;10.004;2023-04-09T07:36:06;11.60;99.90
7206;DHT22;3644;53.480;10.004;2023-04-09T07:38:32;11.70;99.90
7206;DHT22;3644;53.480;10.004;2023-04-09T07:40:59;11.90;99.90
7206;DHT22;3644;53.480;10.004;2023-04-09T07:43:24;12.00;99.90
7206;DHT22;3644;53.480;10.004;2023-04-09T07:45:50;11.90;99.90
7206;DHT22;3644;53.480;10.004;2023-04-09T07:48:16;11.90;99.90
7206;DHT22;3644;53.480;10.004;2023-04-09T07:50:42;12.00;99.90
7206;DHT22;3644;53.480;10.004;2023-04-09T07:53:09;12.10;99.90
7206;DHT22;3644;53.480;10.004;2023-04-09T07:55:35;12.20;99.90
7206;DHT22;3644;53.480;10.004;2023-04-09T07:58:00;12.20;99.90
7206;DHT22;3644;53.480;10.004;2023-04-09T08:00:25;12.30;99.90
7206;DHT22;3644;53.480;10.004;2023-04-09T08:02:51;12.40;99.90
7206;DHT22;3644;53.480;10.004;2023-04-09T08:05:16;12.40;99.90
7206;DHT22;3644;53.480;10.004;2023-04-09T08:07:42;12.40;99.90
7206;DHT22;3644;53.480;10.004;2023-04-09T08:10:08;12.40;99.90
7206;DHT22;3644;53.480;10.004;2023-04-09T08:12:38;12.50;99.90
7206;DHT22;3644;53.480;10.004;2023-04-09T08:15:04;12.50;99.90
7206;DHT22;3644;53.480;10.004;2023-04-09T08:17:29;12.60;99.90
7206;DHT22;3644;53.480;10.004;2023-04-09T08:19:55;12.60;99.90
7206;DHT22;3644;53.480;10.004;2023-04-09T08:22:21;12.60;99.90
7206;DHT22;3644;53.480;10.004;2023-04-09T08:24:50;12.60;99.90
7206;DHT22;3644;53.480;10.004;2023-04-09T08:27:16;12.60;99.90
7206;DHT22;3644;53.480;10.004;2023-04-09T08:29:42;12.40;99.90
7206;DHT22;3644;53.480;10.004;2023-04-09T08:32:08;12.40;99.90
7206;DHT22;3644;53.480;10.004;2023-04-09T08:34:33;12.40;99.90
7206;DHT22;3644;53.480;10.004;2023-04-09T08:36:59;12.50;99.90
7206;DHT22;3644;53.480;10.004;2023-04-09T08:39:24;12.70;99.90
7206;DHT22;3644;53.480;10.004;2023-04-09T08:41:50;12.80;99.90
7206;DHT22;3644;53.480;10.004;2023-04-09T08:44:17;12.90;99.90
7206;DHT22;3644;53.480;10.004;2023-04-09T08:46:43;13.00;99.90
7206;DHT22;3644;53.480;10.004;2023-04-09T08:49:09;13.10;99.90
7206;DHT22;3644;53.480;10.004;2023-04-09T08:51:37;13.10;99.90
7206;DHT22;3644;53.480;10.004;2023-04-09T08:54:04;13.00;99.90
7206;DHT22;3644;53.480;10.004;2023-04-09T08:56:31;13.00;99.90
7206;DHT22;3644;53.480;10.004;2023-04-09T08:58:56;13.00;99.90
7206;DHT22;3644;53.480;10.004;2023-04-09T09:01:30;13.20;99.90
7206;DHT22;3644;53.480;10.004;2023-04-09T09:06:23;13.50;99.90
7206;DHT22;3644;53.480;10.004;2023-04-09T09:09:15;13.60;99.90
7206;DHT22;3644;53.480;10.004;2023-04-09T09:11:43;13.80;99.90
7206;DHT22;3644;53.480;10.004;2023-04-09T09:14:10;14.00;99.90
7206;DHT22;3644;53.480;10.004;2023-04-09T09:16:38;14.00;99.90
7206;DHT22;3644;53.480;10.004;2023-04-09T09:21:58;14.10;99.90
7206;DHT22;3644;53.480;10.004;2023-04-09T09:24:24;14.20;99.90
7206;DHT22;3644;53.480;10.004;2023-04-09T09:26:50;14.10;99.90
7206;DHT22;3644;53.480;10.004;2023-04-09T09:29:16;14.10;99.90
7206;DHT22;3644;53.480;10.004;2023-04-09T09:31:46;14.00;99.90
7206;DHT22;3644;53.480;10.004;2023-04-09T09:34:14;14.00;99.90
7206;DHT22;3644;53.480;10.004;2023-04-09T09:36:41;13.70;99.90
7206;DHT22;3644;53.480;10.004;2023-04-09T09:39:06;13.80;99.90
7206;DHT22;3644;53.480;10.004;2023-04-09T09:41:37;14.00;99.90
7206;DHT22;3644;53.480;10.004;2023-04-09T09:44:02;14.10;99.90
7206;DHT22;3644;53.480;10.004;2023-04-09T09:46:34;14.10;99.90
7206;DHT22;3644;53.480;10.004;2023-04-09T09:49:00;14.00;99.90
7206;DHT22;3644;53.480;10.004;2023-04-09T09:51:26;13.70;99.90
7206;DHT22;3644;53.480;10.004;2023-04-09T09:53:56;13.80;99.90
7206;DHT22;3644;53.480;10.004;2023-04-09T09:56:29;14.00;99.90
7206;DHT22;3644;53.480;10.004;2023-04-09T10:01:28;14.10;99.90
7206;DHT22;3644;53.480;10.004;2023-04-09T10:03:56;14.30;99.90
7206;DHT22;3644;53.480;10.004;2023-04-09T10:06:24;14.50;99.90
7206;DHT22;3644;53.480;10.004;2023-04-09T10:08:51;14.80;99.90
7206;DHT22;3644;53.480;10.004;2023-04-09T10:11:17;15.00;99.90
7206;DHT22;3644;53.480;10.004;2023-04-09T10:13:54;15.00;99.90
7206;DHT22;3644;53.480;10.004;2023-04-09T10:16:21;15.10;99.90
7206;DHT22;3644;53.480;10.004;2023-04-09T10:18:47;15.10;99.90
7206;DHT22;3644;53.480;10.004;2023-04-09T10:21:21;15.20;99.90
7206;DHT22;3644;53.480;10.004;2023-04-09T10:23:48;15.30;99.90
7206;DHT22;3644;53.480;10.004;2023-04-09T10:26:17;15.40;99.90
7206;DHT22;3644;53.480;10.004;2023-04-09T10:28:43;15.40;99.90
7206;DHT22;3644;53.480;10.004;2023-04-09T10:31:08;15.30;99.90
7206;DHT22;3644;53.480;10.004;2023-04-09T10:33:38;15.30;99.90
7206;DHT22;3644;53.480;10.004;2023-04-09T10:36:06;15.30;99.90
7206;DHT22;3644;53.480;10.004;2023-04-09T10:38:38;15.40;99.90
7206;DHT22;3644;53.480;10.004;2023-04-09T10:41:24;15.60;99.90
7206;DHT22;3644;53.480;10.004;2023-04-09T10:43:51;15.80;99.90
7206;DHT22;3644;53.480;10.004;2023-04-09T10:46:34;15.80;99.90
7206;DHT22;3644;53.480;10.004;2023-04-09T10:51:40;16.30;99.90
7206;DHT22;3644;53.480;10.004;2023-04-09T10:57:12;16.50;99.90
7206;DHT22;3644;53.480;10.004;2023-04-09T10:59:40;16.70;99.90
7206;DHT22;3644;53.480;10.004;2023-04-09T11:02:08;16.50;99.90
7206;DHT22;3644;53.480;10.004;2023-04-09T11:07:18;16.50;99.90
7206;DHT22;3644;53.480;10.004;2023-04-09T11:09:46;16.50;99.90
7206;DHT22;3644;53.480;10.004;2023-04-09T11:12:12;16.50;99.90
7206;DHT22;3644;53.480;10.004;2023-04-09T11:14:37;16.60;99.90
7206;DHT22;3644;53.480;10.004;2023-04-09T11:17:03;16.00;99.90
7206;DHT22;3644;53.480;10.004;2023-04-09T11:19:28;16.00;99.90
7206;DHT22;3644;53.480;10.004;2023-04-09T11:21:54;15.90;99.90
7206;DHT22;3644;53.480;10.004;2023-04-09T11:24:20;16.00;99.90
7206;DHT22;3644;53.480;10.004;2023-04-09T11:26:47;16.10;99.90
7206;DHT22;3644;53.480;10.004;2023-04-09T11:29:13;15.90;99.90
7206;DHT22;3644;53.480;10.004;2023-04-09T11:31:43;15.50;99.90
7206;DHT22;3644;53.480;10.004;2023-04-09T11:34:10;15.20;99.90
7206;DHT22;3644;53.480;10.004;2023-04-09T11:36:39;15.00;99.90
7206;DHT22;3644;53.480;10.004;2023-04-09T11:39:04;15.30;99.90
7206;DHT22;3644;53.480;10.004;2023-04-09T11:41:35;15.60;99.90
7206;DHT22;3644;53.480;10.004;2023-04-09T11:44:04;15.70;99.90
7206;DHT22;3644;53.480;10.004;2023-04-09T11:46:34;15.70;99.90
7206;DHT22;3644;53.480;10.004;2023-04-09T11:49:00;15.70;99.90
7206;DHT22;3644;53.480;10.004;2023-04-09T11:51:27;15.80;99.90
7206;DHT22;3644;53.480;10.004;2023-04-09T11:53:53;15.40;99.90
7206;DHT22;3644;53.480;10.004;2023-04-09T11:56:19;15.30;99.90
7206;DHT22;3644;53.480;10.004;2023-04-09T11:58:48;15.00;99.90
7206;DHT22;3644;53.480;10.004;2023-04-09T12:01:14;15.00;99.90
7206;DHT22;3644;53.480;10.004;2023-04-09T12:03:40;14.70;99.90
7206;DHT22;3644;53.480;10.004;2023-04-09T12:06:06;14.50;99.90
7206;DHT22;3644;53.480;10.004;2023-04-09T12:08:34;14.60;99.90
7206;DHT22;3644;53.480;10.004;2023-04-09T12:11:27;14.90;99.90
7206;DHT22;3644;53.480;10.004;2023-04-09T12:14:03;15.40;99.90
7206;DHT22;3644;53.480;10.004;2023-04-09T12:16:30;15.50;99.90
7206;DHT22;3644;53.480;10.004;2023-04-09T12:19:03;15.80;99.90
7206;DHT22;3644;53.480;10.004;2023-04-09T12:21:50;16.00;99.90
7206;DHT22;3644;53.480;10.004;2023-04-09T12:24:18;16.20;99.90
7206;DHT22;3644;53.480;10.004;2023-04-09T12:26:45;16.20;99.90
7206;DHT22;3644;53.480;10.004;2023-04-09T12:29:14;16.40;99.90
7206;DHT22;3644;53.480;10.004;2023-04-09T12:31:41;16.30;99.90
7206;DHT22;3644;53.480;10.004;2023-04-09T12:34:07;16.30;99.90
7206;DHT22;3644;53.480;10.004;2023-04-09T12:36:33;16.30;99.90
7206;DHT22;3644;53.480;10.004;2023-04-09T12:38:58;16.40;99.90
7206;DHT22;3644;53.480;10.004;2023-04-09T12:41:24;16.60;99.90
7206;DHT22;3644;53.480;10.004;2023-04-09T12:43:50;16.70;99.90
7206;DHT22;3644;53.480;10.004;2023-04-09T12:46:17;16.40;99.90
7206;DHT22;3644;53.480;10.004;2023-04-09T12:48:43;16.30;99.90
7206;DHT22;3644;53.480;10.004;2023-04-09T12:51:10;16.30;99.90
7206;DHT22;3644;53.480;10.004;2023-04-09T12:53:36;15.90;99.90
7206;DHT22;3644;53.480;10.004;2023-04-09T12:56:02;16.20;99.90
7206;DHT22;3644;53.480;10.004;2023-04-09T12:58:27;16.50;99.90
7206;DHT22;3644;53.480;10.004;2023-04-09T13:00:53;16.70;99.90
7206;DHT22;3644;53.480;10.004;2023-04-09T13:03:21;16.80;99.90
7206;DHT22;3644;53.480;10.004;2023-04-09T13:05:47;16.80;99.90
7206;DHT22;3644;53.480;10.004;2023-04-09T13:08:13;16.90;99.90
7206;DHT22;3644;53.480;10.004;2023-04-09T13:10:38;16.70;99.90
7206;DHT22;3644;53.480;10.004;2023-04-09T13:13:04;16.30;99.90
7206;DHT22;3644;53.480;10.004;2023-04-09T13:15:32;16.30;99.90
7206;DHT22;3644;53.480;10.004;2023-04-09T13:17:57;16.50;99.90
7206;DHT22;3644;53.480;10.004;2023-04-09T13:20:23;16.50;99.90
7206;DHT22;3644;53.480;10.004;2023-04-09T13:22:49;16.60;99.90
7206;DHT22;3644;53.480;10.004;2023-04-09T13:25:15;16.40;99.90
7206;DHT22;3644;53.480;10.004;2023-04-09T13:27:40;16.50;99.90
7206;DHT22;3644;53.480;10.004;2023-04-09T13:30:07;16.60;99.90
7206;DHT22;3644;53.480;10.004;2023-04-09T13:32:32;16.80;99.90
7206;DHT22;3644;53.480;10.004;2023-04-09T13:34:58;16.80;99.90
7206;DHT22;3644;53.480;10.004;2023-04-09T13:37:23;16.90;99.90
7206;DHT22;3644;53.480;10.004;2023-04-09T13:39:50;16.60;99.90
7206;DHT22;3644;53.480;10.004;2023-04-09T13:42:16;16.80;99.90
7206;DHT22;3644;53.480;10.004;2023-04-09T13:44:42;16.90;99.90
7206;DHT22;3644;53.480;10.004;2023-04-09T13:47:10;17.10;99.90
7206;DHT22;3644;53.480;10.004;2023-04-09T13:49:40;17.10;99.90
7206;DHT22;3644;53.480;10.004;2023-04-09T13:52:06;17.10;99.90
7206;DHT22;3644;53.480;10.004;2023-04-09T13:54:32;17.00;99.90
7206;DHT22;3644;53.480;10.004;2023-04-09T13:56:58;16.80;99.90
7206;DHT22;3644;53.480;10.004;2023-04-09T13:59:23;16.90;99.90
7206;DHT22;3644;53.480;10.004;2023-04-09T14:01:49;17.00;99.90
7206;DHT22;3644;53.480;10.004;2023-04-09T14:04:15;17.10;99.90
7206;DHT22;3644;53.480;10.004;2023-04-09T14:06:40;17.30;99.90
7206;DHT22;3644;53.480;10.004;2023-04-09T14:09:07;17.50;99.90
7206;DHT22;3644;53.480;10.004;2023-04-09T14:11:32;17.80;99.90
7206;DHT22;3644;53.480;10.004;2023-04-09T14:13:58;17.60;99.90
7206;DHT22;3644;53.480;10.004;2023-04-09T14:16:23;17.40;99.90
7206;DHT22;3644;53.480;10.004;2023-04-09T14:18:49;17.40;99.90
7206;DHT22;3644;53.480;10.004;2023-04-09T14:21:14;17.60;99.90
7206;DHT22;3644;53.480;10.004;2023-04-09T14:23:40;17.80;99.90
7206;DHT22;3644;53.480;10.004;2023-04-09T14:26:06;17.80;99.90
7206;DHT22;3644;53.480;10.004;2023-04-09T14:28:32;17.70;99.90
7206;DHT22;3644;53.480;10.004;2023-04-09T14:30:58;17.80;99.90
7206;DHT22;3644;53.480;10.004;2023-04-09T14:33:24;17.70;99.90
7206;DHT22;3644;53.480;10.004;2023-04-09T14:35:50;17.50;99.90
7206;DHT22;3644;53.480;10.004;2023-04-09T14:38:16;17.20;99.90
7206;DHT22;3644;53.480;10.004;2023-04-09T14:40:42;17.10;99.90
7206;DHT22;3644;53.480;10.004;2023-04-09T14:43:08;17.40;99.90
7206;DHT22;3644;53.480;10.004;2023-04-09T14:45:33;17.50;99.90
7206;DHT22;3644;53.480;10.004;2023-04-09T14:47:59;17.30;99.90
7206;DHT22;3644;53.480;10.004;2023-04-09T14:50:24;17.10;99.90
7206;DHT22;3644;53.480;10.004;2023-04-09T14:52:50;17.10;99.90
7206;DHT22;3644;53.480;10.004;2023-04-09T14:55:16;17.20;99.90
7206;DHT22;3644;53.480;10.004;2023-04-09T14:57:42;17.10;99.90
7206;DHT22;3644;53.480;10.004;2023-04-09T15:00:10;17.20;99.90
7206;DHT22;3644;53.480;10.004;2023-04-09T15:02:35;17.30;99.90
7206;DHT22;3644;53.480;10.004;2023-04-09T15:05:01;17.30;99.90
7206;DHT22;3644;53.480;10.004;2023-04-09T15:07:28;17.60;99.90
7206;DHT22;3644;53.480;10.004;2023-04-09T15:09:53;17.70;99.90
7206;DHT22;3644;53.480;10.004;2023-04-09T15:12:19;17.90;99.90
7206;DHT22;3644;53.480;10.004;2023-04-09T15:14:44;18.10;99.90
7206;DHT22;3644;53.480;10.004;2023-04-09T15:17:10;18.00;99.90
7206;DHT22;3644;53.480;10.004;2023-04-09T15:19:35;18.20;99.90
7206;DHT22;3644;53.480;10.004;2023-04-09T15:22:01;17.70;99.90
7206;DHT22;3644;53.480;10.004;2023-04-09T15:24:26;17.80;99.90
7206;DHT22;3644;53.480;10.004;2023-04-09T15:26:52;17.80;99.90
7206;DHT22;3644;53.480;10.004;2023-04-09T15:29:17;17.80;99.90
7206;DHT22;3644;53.480;10.004;2023-04-09T15:31:43;17.80;99.90
7206;DHT22;3644;53.480;10.004;2023-04-09T15:34:08;17.90;99.90
7206;DHT22;3644;53.480;10.004;2023-04-09T15:36:34;17.80;99.90
7206;DHT22;3644;53.480;10.004;2023-04-09T15:39:02;17.90;99.90
7206;DHT22;3644;53.480;10.004;2023-04-09T15:41:28;17.80;99.90
7206;DHT22;3644;53.480;10.004;2023-04-09T15:43:56;17.70;99.90
7206;DHT22;3644;53.480;10.004;2023-04-09T15:46:22;17.80;99.90
7206;DHT22;3644;53.480;10.004;2023-04-09T15:48:47;18.00;99.90
7206;DHT22;3644;53.480;10.004;2023-04-09T15:51:13;18.10;99.90
7206;DHT22;3644;53.480;10.004;2023-04-09T15:53:38;17.90;99.90
7206;DHT22;3644;53.480;10.004;2023-04-09T15:56:04;17.40;99.90
7206;DHT22;3644;53.480;10.004;2023-04-09T15:58:30;17.40;99.90
7206;DHT22;3644;53.480;10.004;2023-04-09T16:00:56;17.30;99.90
7206;DHT22;3644;53.480;10.004;2023-04-09T16:03:21;17.00;99.90
7206;DHT22;3644;53.480;10.004;2023-04-09T16:05:47;17.00;99.90
7206;DHT22;3644;53.480;10.004;2023-04-09T16:08:13;17.00;99.90
7206;DHT22;3644;53.480;10.004;2023-04-09T16:10:38;16.90;99.90